Time;durP1;ratioP1;P1;durP2;ratioP2;P2;SDS_P1;SDS_P2;PMS_P1;PMS_P2;Temp;Humidity;BMP_temperature;BMP_pressure;BME280_temperature;BME280_humidity;BME280_pressure;Samples;Min_cycle;Max_cycle;Signal;HPM_P1;HPM_P2
2022/06/08 00:01:38;;;;;;;0.30;0.30;;;;;;;14.90;98.68;99880.13;5072302;28;20170;-72
2022/06/08 00:04:05;;;;;;;0.20;0.20;;;;;;;14.92;98.51;99882.53;5072499;28;20257;-72
2022/06/08 00:06:31;;;;;;;0.43;0.43;;;;;;;14.94;98.28;99877.47;5072288;28;20320;-74
2022/06/08 00:08:56;;;;;;;0.13;0.13;;;;;;;14.94;98.47;99877.47;5072130;28;20285;-72
2022/06/08 00:11:21;;;;;;;0.03;0.03;;;;;;;14.93;98.41;99878.63;5072023;28;20589;-72
2022/06/08 00:13:47;;;;;;;1.13;1.03;;;;;;;14.87;98.46;99873.34;5071067;28;20265;-73
2022/06/08 00:16:13;;;;;;;6.30;0.50;;;;;;;14.87;99.16;99875.31;5072072;28;20194;-72
2022/06/08 00:18:40;;;;;;;0.10;0.10;;;;;;;14.84;99.49;99874.06;5071550;28;20178;-72
2022/06/08 00:21:07;;;;;;;0.37;0.37;;;;;;;14.84;99.63;99878.78;5072414;28;20171;-73
2022/06/08 00:23:32;;;;;;;0.90;0.90;;;;;;;14.79;100.00;99874.34;5071821;28;20183;-72
2022/06/08 00:25:57;;;;;;;0.30;0.30;;;;;;;14.78;100.00;99874.69;5072311;28;20174;-73
2022/06/08 00:28:23;;;;;;;0.37;0.37;;;;;;;14.79;100.00;99874.34;5071659;28;20715;-72
2022/06/08 00:30:48;;;;;;;0.20;0.20;;;;;;;14.83;100.00;99866.97;5072062;28;20256;-71
2022/06/08 00:33:14;;;;;;;0.10;0.10;;;;;;;14.88;100.00;99861.19;5071955;28;20285;-73
2022/06/08 00:35:39;;;;;;;0.10;0.10;;;;;;;14.89;100.00;99864.75;5071695;28;20178;-72
2022/06/08 00:38:05;;;;;;;0.00;0.00;;;;;;;14.88;100.00;99860.41;5071212;28;20198;-72
2022/06/08 00:40:46;;;;;;;0.00;0.00;;;;;;;14.89;100.00;99871.03;5071397;28;20205;-72
2022/06/08 00:43:12;;;;;;;0.00;0.00;;;;;;;14.88;100.00;99872.19;5077161;28;20182;-71
2022/06/08 00:45:37;;;;;;;0.40;0.03;;;;;;;14.87;100.00;99861.56;5079242;28;20167;-72
2022/06/08 00:48:05;;;;;;;0.00;0.00;;;;;;;14.87;100.00;99865.09;5074855;28;20233;-72
2022/06/08 00:50:47;;;;;;;0.33;0.33;;;;;;;14.86;100.00;99863.50;5071804;28;20167;-71
2022/06/08 00:53:16;;;;;;;0.17;0.17;;;;;;;14.84;100.00;99868.56;5071683;28;20663;-72
2022/06/08 00:55:43;;;;;;;0.23;0.23;;;;;;;14.81;100.00;99860.25;5071519;28;20387;-72
2022/06/08 00:58:18;;;;;;;0.10;0.10;;;;;;;14.77;100.00;99854.66;5071150;28;20170;-71
2022/06/08 01:00:44;;;;;;;0.07;0.07;;;;;;;14.72;100.00;99846.66;5053711;28;20212;-72
2022/06/08 01:03:13;;;;;;;0.40;0.40;;;;;;;14.62;100.00;99854.63;5071447;28;20174;-72
2022/06/08 01:05:46;;;;;;;0.30;0.30;;;;;;;14.59;100.00;99856.91;5071423;28;20340;-72
2022/06/08 01:08:17;;;;;;;0.13;0.13;;;;;;;14.55;100.00;99853.28;5070742;28;20194;-73
2022/06/08 01:10:46;;;;;;;0.00;0.00;;;;;;;14.60;100.00;99846.72;5053352;28;20166;-72
2022/06/08 01:13:12;;;;;;;0.00;0.00;;;;;;;14.63;100.00;99837.78;5070508;28;20205;-72
2022/06/08 01:15:39;;;;;;;0.00;0.00;;;;;;;14.68;100.00;99843.00;5071192;28;20202;-72
2022/06/08 01:18:06;;;;;;;0.00;0.00;;;;;;;14.68;100.00;99833.97;5070528;28;20211;-73
2022/06/08 01:20:31;;;;;;;0.00;0.00;;;;;;;14.61;100.00;99834.59;5071059;28;20205;-72
2022/06/08 01:22:57;;;;;;;0.10;0.10;;;;;;;14.54;100.00;99829.69;5071046;28;20260;-73
2022/06/08 01:25:25;;;;;;;0.30;0.30;;;;;;;14.56;100.00;99827.38;5071350;28;20312;-73
2022/06/08 01:28:09;;;;;;;0.67;0.67;;;;;;;14.62;100.00;99827.94;5070587;28;20221;-72
2022/06/08 01:31:01;;;;;;;0.00;0.00;;;;;;;14.69;100.00;99828.09;5070930;28;20174;-72
2022/06/08 01:33:41;;;;;;;0.47;0.47;;;;;;;14.71;100.00;99825.81;5070731;28;20216;-72
2022/06/08 01:36:21;;;;;;;0.20;0.20;;;;;;;14.73;100.00;99822.69;5070953;28;20583;-72
2022/06/08 01:39:01;;;;;;;0.10;0.10;;;;;;;14.78;100.00;99828.75;5070351;28;20205;-71
2022/06/08 01:42:17;;;;;;;12.83;0.93;;;;;;;14.85;100.00;99817.13;5070679;28;20826;-73
2022/06/08 01:48:22;;;;;;;0.30;0.10;;;;;;;14.87;100.00;99823.06;5007970;28;20261;-72
2022/06/08 01:51:02;;;;;;;0.23;0.20;;;;;;;14.92;100.00;99819.25;5068150;28;20189;-72
2022/06/08 01:53:54;;;;;;;0.17;0.10;;;;;;;14.92;100.00;99814.56;5070526;28;20194;-73
2022/06/08 01:56:47;;;;;;;0.27;0.27;;;;;;;14.94;100.00;99817.75;5070662;28;20273;-72
2022/06/08 01:59:21;;;;;;;0.40;0.40;;;;;;;14.94;100.00;99811.44;5070566;28;20175;-73
2022/06/08 02:02:04;;;;;;;0.10;0.10;;;;;;;14.97;100.00;99818.97;5070427;28;20177;-73
2022/06/08 02:04:52;;;;;;;1.20;1.10;;;;;;;15.00;100.00;99813.56;5052849;28;20563;-72
2022/06/08 02:07:42;;;;;;;0.00;0.00;;;;;;;15.05;100.00;99810.56;5070269;28;20181;-72
2022/06/08 02:10:32;;;;;;;0.00;0.00;;;;;;;15.07;100.00;99805.47;5059698;28;20201;-72
2022/06/08 02:13:10;;;;;;;0.00;0.00;;;;;;;15.10;100.00;99802.00;5051491;28;20174;-73
2022/06/08 02:15:40;;;;;;;0.77;0.77;;;;;;;15.10;100.00;99798.47;5070628;28;20174;-72
2022/06/08 02:18:13;;;;;;;0.00;0.00;;;;;;;15.03;100.00;99788.06;5069942;28;20185;-73
2022/06/08 02:20:51;;;;;;;0.00;0.00;;;;;;;14.98;100.00;99793.06;5070651;28;20685;-72
2022/06/08 02:23:29;;;;;;;0.10;0.10;;;;;;;14.93;100.00;99796.09;5052320;28;20607;-74
2022/06/08 02:26:01;;;;;;;0.47;0.47;;;;;;;14.84;100.00;99797.06;5070451;28;20625;-72
2022/06/08 02:28:44;;;;;;;0.40;0.40;;;;;;;14.78;100.00;99789.44;5069484;28;20202;-74
2022/06/08 02:31:17;;;;;;;0.30;0.30;;;;;;;14.70;100.00;99795.91;5070272;28;20175;-72
2022/06/08 02:36:54;;;;;;;1.90;0.70;;;;;;;14.62;100.00;99789.44;5024777;28;20548;-72
2022/06/08 02:39:28;;;;;;;1.87;0.20;;;;;;;14.60;100.00;99788.97;5070032;28;20185;-72
2022/06/08 02:41:58;;;;;;;0.33;0.33;;;;;;;14.61;100.00;99784.28;5070251;28;20170;-72
2022/06/08 02:44:29;;;;;;;0.47;0.47;;;;;;;14.62;100.00;99786.72;5070546;28;20253;-72
2022/06/08 02:47:16;;;;;;;0.13;0.13;;;;;;;14.65;100.00;99788.75;5071964;28;20198;-73
2022/06/08 02:49:42;;;;;;;0.60;0.60;;;;;;;14.71;100.00;99790.06;5071014;28;20282;-72
2022/06/08 02:52:21;;;;;;;0.50;0.50;;;;;;;14.74;100.00;99788.53;5073610;28;20273;-74
2022/06/08 02:54:46;;;;;;;0.70;0.70;;;;;;;14.76;100.00;99784.31;5091863;28;20502;-72
2022/06/08 02:57:14;;;;;;;0.50;0.50;;;;;;;14.76;100.00;99797.25;5081295;28;20633;-73
2022/06/08 02:59:54;;;;;;;0.30;0.30;;;;;;;14.75;100.00;99795.63;5073518;28;20217;-73
2022/06/08 03:02:47;;;;;;;0.30;0.30;;;;;;;14.80;100.00;99798.13;5073621;28;20634;-72
2022/06/08 03:05:24;;;;;;;0.70;0.70;;;;;;;14.82;100.00;99790.31;5073433;28;20182;-73
2022/06/08 03:07:57;;;;;;;0.03;0.03;;;;;;;14.82;100.00;99790.31;5072953;28;20194;-73
2022/06/08 03:10:24;;;;;;;0.07;0.07;;;;;;;14.78;100.00;99800.44;5073508;28;20174;-74
2022/06/08 03:13:05;;;;;;;0.20;0.20;;;;;;;14.78;100.00;99797.69;5072498;28;20268;-72
2022/06/08 03:15:32;;;;;;;0.00;0.00;;;;;;;14.81;100.00;99800.53;5073338;28;20189;-74
2022/06/08 03:17:57;;;;;;;0.00;0.00;;;;;;;14.81;100.00;99800.53;5072934;28;20205;-72
2022/06/08 03:20:24;;;;;;;0.00;0.00;;;;;;;14.83;100.00;99798.22;5073322;28;20220;-73
2022/06/08 03:22:50;;;;;;;0.30;0.30;;;;;;;14.86;100.00;99796.69;5073592;28;20273;-72
2022/06/08 03:25:15;;;;;;;0.23;0.23;;;;;;;14.87;100.00;99798.28;5073264;28;20694;-72
2022/06/08 03:27:44;;;;;;;0.93;0.27;;;;;;;14.85;100.00;99804.16;5072744;28;20725;-74
2022/06/08 03:30:11;;;;;;;0.60;0.60;;;;;;;14.82;100.00;99807.63;5072995;28;20174;-73
2022/06/08 03:32:37;;;;;;;0.30;0.30;;;;;;;14.79;100.00;99816.59;5072951;28;20179;-72
2022/06/08 03:35:02;;;;;;;0.07;0.07;;;;;;;14.78;100.00;99809.50;5073021;28;20193;-72
2022/06/08 03:37:28;;;;;;;0.00;0.00;;;;;;;14.84;100.00;99807.25;5072555;28;20542;-73
2022/06/08 03:39:53;;;;;;;0.00;0.00;;;;;;;14.87;100.00;99814.81;5072950;28;20211;-72
2022/06/08 03:42:18;;;;;;;0.27;0.27;;;;;;;14.89;100.00;99813.28;5072884;28;20175;-72
2022/06/08 03:44:45;;;;;;;0.00;0.00;;;;;;;14.89;100.00;99807.78;5072899;28;20167;-75
2022/06/08 03:47:16;;;;;;;0.00;0.00;;;;;;;14.91;100.00;99812.16;5072255;28;20711;-74
2022/06/08 03:49:42;;;;;;;0.23;0.23;;;;;;;14.94;100.00;99814.19;5072565;28;20643;-72
2022/06/08 03:52:15;;;;;;;0.10;0.10;;;;;;;14.97;100.00;99813.47;5072767;28;20181;-72
2022/06/08 03:54:47;;;;;;;0.37;0.33;;;;;;;14.98;100.00;99820.56;5072631;28;20170;-72
2022/06/08 03:57:14;;;;;;;19.33;0.93;;;;;;;15.01;100.00;99814.34;5071827;28;20174;-72
2022/06/08 03:59:41;;;;;;;0.77;0.30;;;;;;;15.03;100.00;99821.09;5072344;28;20577;-72
2022/06/08 04:02:09;;;;;;;0.50;0.50;;;;;;;15.08;100.00;99823.59;5072450;28;20265;-73
2022/06/08 04:04:36;;;;;;;0.20;0.10;;;;;;;15.13;100.00;99825.25;5072581;28;20260;-72
2022/06/08 04:07:02;;;;;;;0.00;0.00;;;;;;;15.20;100.00;99832.91;5072094;28;20256;-73
2022/06/08 04:09:27;;;;;;;0.30;0.30;;;;;;;15.25;100.00;99832.63;5072094;28;20243;-74
2022/06/08 04:11:52;;;;;;;0.63;0.63;;;;;;;15.27;100.00;99828.34;5071305;28;20330;-72
2022/06/08 04:14:18;;;;;;;0.00;0.00;;;;;;;15.33;100.00;99821.41;5072441;28;20522;-73
2022/06/08 04:16:43;;;;;;;0.13;0.13;;;;;;;15.38;100.00;99818.38;5072215;28;20207;-72
2022/06/08 04:19:08;;;;;;;0.00;0.00;;;;;;;15.43;100.00;99820.06;5072132;28;20254;-72
2022/06/08 04:21:34;;;;;;;1.23;1.13;;;;;;;15.41;100.00;99825.91;5072128;28;20597;-74
2022/06/08 04:24:02;;;;;;;0.10;0.10;;;;;;;15.42;100.00;99815.69;5071869;28;20178;-72
2022/06/08 04:26:28;;;;;;;0.20;0.20;;;;;;;15.42;100.00;99819.25;5071724;28;20252;-72
2022/06/08 04:28:54;;;;;;;0.70;0.70;;;;;;;15.44;100.00;99816.94;5071426;28;20194;-72
2022/06/08 04:31:20;;;;;;;0.53;0.53;;;;;;;15.41;100.00;99820.41;5071906;28;20180;-72
2022/06/08 04:33:45;;;;;;;0.90;0.90;;;;;;;15.42;100.00;99830.25;5072098;28;20166;-72
2022/06/08 04:36:13;;;;;;;0.53;0.37;;;;;;;15.44;100.00;99827.94;5071807;28;20265;-73
2022/06/08 04:38:39;;;;;;;0.77;0.77;;;;;;;15.44;100.00;99816.13;5071205;28;20166;-73
2022/06/08 04:41:05;;;;;;;0.77;0.77;;;;;;;15.46;100.00;99820.13;5071826;28;20716;-73
2022/06/08 04:43:30;;;;;;;0.40;0.40;;;;;;;15.49;100.00;99832.41;5071755;28;20196;-72
2022/06/08 04:45:55;;;;;;;0.33;0.33;;;;;;;15.52;100.00;99814.34;5071631;28;20170;-73
2022/06/08 04:48:21;;;;;;;0.00;0.00;;;;;;;15.57;100.00;99825.06;5070942;28;20206;-78
2022/06/08 04:50:48;;;;;;;0.40;0.40;;;;;;;15.61;100.00;99817.72;5071656;28;20171;-75
2022/06/08 04:53:14;;;;;;;0.20;0.20;;;;;;;15.66;100.00;99818.25;5071463;28;20177;-79
2022/06/08 04:55:39;;;;;;;0.00;0.00;;;;;;;15.68;100.00;99823.41;5071423;28;20265;-72
2022/06/08 04:58:05;;;;;;;0.10;0.10;;;;;;;15.71;100.00;99817.16;5070346;28;20178;-72
2022/06/08 05:00:31;;;;;;;0.40;0.30;;;;;;;15.76;100.00;99809.38;5071337;28;20209;-72
2022/06/08 05:02:57;;;;;;;0.00;0.00;;;;;;;15.73;100.00;99820.34;5071326;28;20547;-73
2022/06/08 05:05:25;;;;;;;0.00;0.00;;;;;;;15.79;100.00;99815.38;5071250;28;20181;-73
2022/06/08 05:07:51;;;;;;;0.10;0.10;;;;;;;15.84;100.00;99815.06;5070549;28;20195;-73
2022/06/08 05:10:17;;;;;;;0.00;0.00;;;;;;;15.89;100.00;99815.56;5070846;28;20273;-73
2022/06/08 05:12:43;;;;;;;0.60;0.60;;;;;;;15.95;100.00;99816.09;5070058;28;20179;-73
2022/06/08 05:15:12;;;;;;;0.00;0.00;;;;;;;15.99;100.00;99815.00;5071076;28;20179;-73
2022/06/08 05:17:38;;;;;;;0.00;0.00;;;;;;;16.06;100.00;99819.88;5070777;28;20243;-72
2022/06/08 05:20:05;;;;;;;0.00;0.00;;;;;;;16.16;100.00;99821.22;5071242;28;20692;-74
2022/06/08 05:22:30;;;;;;;0.03;0.03;;;;;;;16.19;100.00;99817.72;5071059;28;20513;-73
2022/06/08 05:24:57;;;;;;;0.00;0.00;;;;;;;16.19;100.00;99818.53;5071043;28;20431;-73
2022/06/08 05:27:22;;;;;;;0.00;0.00;;;;;;;16.28;100.00;99810.03;5070600;28;20174;-72
2022/06/08 05:29:47;;;;;;;0.00;0.00;;;;;;;16.35;100.00;99815.69;5070680;28;20174;-73
2022/06/08 05:32:13;;;;;;;0.00;0.00;;;;;;;16.38;100.00;99827.94;5070838;28;20699;-72
2022/06/08 05:34:38;;;;;;;0.00;0.00;;;;;;;16.42;100.00;99817.78;5070681;28;20186;-72
2022/06/08 05:37:04;;;;;;;0.20;0.20;;;;;;;16.45;100.00;99823.34;5070575;28;20166;-72
2022/06/08 05:39:29;;;;;;;0.10;0.10;;;;;;;16.49;100.00;99827.00;5070428;28;20187;-74
2022/06/08 05:41:55;;;;;;;0.00;0.00;;;;;;;16.49;100.00;99824.22;5071066;28;20174;-72
2022/06/08 05:44:20;;;;;;;0.00;0.00;;;;;;;16.51;100.00;99835.69;5070707;28;20179;-74
2022/06/08 05:46:50;;;;;;;0.17;0.10;;;;;;;16.51;100.00;99827.41;5070279;28;20186;-72
2022/06/08 05:49:17;;;;;;;0.00;0.00;;;;;;;16.55;100.00;99835.75;5070241;28;20202;-73
2022/06/08 05:51:42;;;;;;;0.00;0.00;;;;;;;16.50;100.00;99820.31;5070636;28;20177;-73
2022/06/08 05:54:08;;;;;;;0.00;0.00;;;;;;;16.48;100.00;99825.38;5070666;28;20179;-73
2022/06/08 05:56:34;;;;;;;0.00;0.00;;;;;;;16.64;100.00;99828.84;5070276;28;20303;-73
2022/06/08 05:58:59;;;;;;;0.00;0.00;;;;;;;16.69;100.00;99821.44;5070464;28;20181;-74
2022/06/08 06:01:25;;;;;;;0.00;0.00;;;;;;;16.79;100.00;99827.16;5070388;28;20272;-76
2022/06/08 06:03:51;;;;;;;0.00;0.00;;;;;;;16.90;100.00;99825.34;5068213;28;20182;-72
2022/06/08 06:06:17;;;;;;;0.93;0.93;;;;;;;16.93;99.25;99829.34;5070046;28;20190;-73
2022/06/08 06:08:45;;;;;;;0.10;0.10;;;;;;;16.91;98.28;99823.38;5079001;28;20209;-74
2022/06/08 06:11:13;;;;;;;0.57;0.57;;;;;;;16.89;98.33;99829.28;5080261;28;20181;-72
2022/06/08 06:13:39;;;;;;;0.20;0.20;;;;;;;16.96;97.78;99834.13;5069879;28;20167;-73
2022/06/08 06:16:05;;;;;;;1.83;1.63;;;;;;;16.97;96.27;99832.97;5070346;28;20179;-81
2022/06/08 06:18:30;;;;;;;0.00;0.00;;;;;;;16.89;94.57;99826.50;5070139;28;20178;-75
2022/06/08 06:20:55;;;;;;;0.70;0.70;;;;;;;17.01;95.98;99835.78;5072286;28;20654;-73
2022/06/08 06:23:21;;;;;;;0.00;0.00;;;;;;;17.04;96.17;99833.06;5074282;28;20253;-73
2022/06/08 06:25:46;;;;;;;0.30;0.30;;;;;;;17.13;96.79;99836.38;5074295;28;20269;-73
2022/06/08 06:28:11;;;;;;;0.07;0.07;;;;;;;17.19;95.94;99832.13;5073654;28;20271;-72
2022/06/08 06:30:36;;;;;;;0.27;0.27;;;;;;;17.17;94.79;99837.22;5056238;28;20182;-72
2022/06/08 06:33:02;;;;;;;0.00;0.00;;;;;;;17.26;95.43;99831.44;5074050;28;20773;-73
2022/06/08 06:35:30;;;;;;;0.60;0.60;;;;;;;17.31;94.56;99839.41;5074096;28;20175;-73
2022/06/08 06:37:55;;;;;;;0.00;0.00;;;;;;;17.34;94.33;99837.88;5073715;28;20182;-74
2022/06/08 06:40:21;;;;;;;0.43;0.43;;;;;;;17.39;93.36;99832.03;5072855;28;20179;-73
2022/06/08 06:42:47;;;;;;;1.03;1.03;;;;;;;17.35;92.29;99839.44;5071911;28;20273;-75
2022/06/08 06:45:14;;;;;;;0.87;0.87;;;;;;;17.37;91.70;99839.91;5073746;28;20631;-74
2022/06/08 06:47:39;;;;;;;2.27;2.17;;;;;;;17.46;91.97;99830.16;5072795;28;20244;-72
2022/06/08 06:50:07;;;;;;;0.50;0.50;;;;;;;17.47;91.19;99834.50;5073753;28;20236;-73
2022/06/08 06:52:32;;;;;;;0.83;0.83;;;;;;;17.47;91.44;99844.78;5073730;28;20171;-73
2022/06/08 06:54:58;;;;;;;0.10;0.10;;;;;;;17.51;91.03;99840.13;5073710;28;20182;-74
2022/06/08 06:57:24;;;;;;;0.20;0.20;;;;;;;17.57;90.44;99843.34;5073553;28;20201;-73
2022/06/08 06:59:50;;;;;;;2.23;2.03;;;;;;;17.66;90.76;99830.06;5073440;28;20174;-72
2022/06/08 07:02:18;;;;;;;1.60;1.50;;;;;;;17.58;90.95;99825.59;5073565;28;20174;-73
2022/06/08 07:04:44;;;;;;;0.00;0.00;;;;;;;17.50;90.39;99827.44;5073762;28;20185;-71
2022/06/08 07:07:09;;;;;;;0.20;0.20;;;;;;;17.58;91.20;99828.34;5073262;28;20178;-73
2022/06/08 07:09:35;;;;;;;0.27;0.27;;;;;;;17.71;91.53;99833.31;5073133;28;20208;-72
2022/06/08 07:12:01;;;;;;;2.90;2.70;;;;;;;17.69;89.00;99832.91;5072854;28;20269;-73
2022/06/08 07:14:27;;;;;;;1.07;1.07;;;;;;;17.65;89.11;99832.03;5073851;28;20190;-75
2022/06/08 07:16:52;;;;;;;0.87;0.77;;;;;;;17.83;90.37;99835.84;5073264;28;20231;-75
2022/06/08 07:19:18;;;;;;;1.13;1.13;;;;;;;18.01;88.90;99830.53;5055139;28;20270;-73
2022/06/08 07:21:44;;;;;;;2.40;2.30;;;;;;;18.05;88.05;99819.50;5055608;28;20517;-72
2022/06/08 07:24:16;;;;;;;1.33;1.23;;;;;;;18.06;88.04;99818.34;5073610;28;20265;-72
2022/06/08 07:26:42;;;;;;;1.17;1.07;;;;;;;18.22;88.07;99807.84;5073372;28;20227;-71
2022/06/08 07:29:07;;;;;;;0.20;0.20;;;;;;;18.35;85.79;99800.09;5072129;28;20658;-72
2022/06/08 07:31:33;;;;;;;0.50;0.50;;;;;;;18.50;84.62;99798.25;5074366;28;20225;-72
2022/06/08 07:33:58;;;;;;;1.70;1.60;;;;;;;18.66;83.32;99807.13;5080616;28;20197;-72
2022/06/08 07:36:23;;;;;;;1.67;1.57;;;;;;;18.80;80.95;99801.72;5072890;28;20175;-72
2022/06/08 07:38:49;;;;;;;0.40;0.40;;;;;;;18.71;80.03;99793.75;5072071;28;20637;-72
2022/06/08 07:41:14;;;;;;;1.93;1.83;;;;;;;18.62;79.79;99784.94;5072728;28;20202;-71
2022/06/08 07:43:39;;;;;;;1.73;1.63;;;;;;;18.65;80.89;99789.75;5054705;28;20181;-71
2022/06/08 07:46:05;;;;;;;1.13;1.13;;;;;;;18.46;77.40;99792.69;5072479;28;20182;-72
2022/06/08 07:51:16;;;;;;;1.20;1.20;;;;;;;18.23;78.74;99781.81;5072649;28;20523;-72
2022/06/08 07:53:41;;;;;;;2.47;1.07;;;;;;;18.29;79.45;99779.50;5072519;28;20178;-72
2022/06/08 07:56:06;;;;;;;1.27;1.10;;;;;;;18.29;78.94;99774.75;5072635;28;20174;-72
2022/06/08 07:58:32;;;;;;;0.73;0.73;;;;;;;18.23;78.50;99765.22;5071986;28;20181;-72
2022/06/08 08:00:57;;;;;;;0.00;0.00;;;;;;;18.44;78.35;99768.19;5072395;28;20642;-72
2022/06/08 08:03:23;;;;;;;2.17;1.10;;;;;;;18.57;77.41;99759.63;5072556;28;20171;-72
2022/06/08 08:05:50;;;;;;;0.03;0.03;;;;;;;18.56;75.29;99756.06;5072848;28;20171;-71
2022/06/08 08:08:17;;;;;;;0.00;0.00;;;;;;;18.78;76.20;99747.94;5071650;28;20720;-72
2022/06/08 08:10:42;;;;;;;3.00;0.67;;;;;;;18.95;74.11;99747.28;5072183;28;20170;-71
2022/06/08 08:13:08;;;;;;;0.30;0.30;;;;;;;19.08;74.61;99747.75;5071332;28;20162;-72
2022/06/08 08:15:34;;;;;;;0.43;0.43;;;;;;;19.07;73.05;99741.44;5072109;28;20257;-71
2022/06/08 08:17:59;;;;;;;0.23;0.23;;;;;;;19.01;72.19;99742.97;5071204;28;20171;-72
2022/06/08 08:20:28;;;;;;;0.00;0.00;;;;;;;19.07;72.13;99748.94;5071357;28;20181;-72
2022/06/08 08:22:57;;;;;;;0.00;0.00;;;;;;;19.26;72.45;99745.91;5071658;28;20185;-66
2022/06/08 08:25:23;;;;;;;0.00;0.00;;;;;;;19.46;72.12;99752.75;5071743;28;20171;-73
2022/06/08 08:27:50;;;;;;;0.23;0.23;;;;;;;19.54;71.27;99746.09;5071371;28;20234;-72
2022/06/08 08:30:18;;;;;;;0.20;0.20;;;;;;;19.67;72.15;99742.97;5071666;28;20185;-73
2022/06/08 08:32:44;;;;;;;0.47;0.47;;;;;;;19.57;70.30;99741.75;5071426;28;20185;-73
2022/06/08 08:35:10;;;;;;;0.67;0.67;;;;;;;19.49;68.98;99740.88;5071746;28;20620;-73
2022/06/08 08:37:36;;;;;;;0.33;0.33;;;;;;;19.45;68.65;99745.63;5070989;28;20175;-72
2022/06/08 08:40:04;;;;;;;1.00;1.00;;;;;;;19.47;70.12;99742.44;5071511;28;20255;-72
2022/06/08 08:42:30;;;;;;;0.93;0.83;;;;;;;19.52;70.44;99731.78;5071344;28;20540;-73
2022/06/08 08:45:01;;;;;;;0.87;0.50;;;;;;;19.64;68.68;99732.66;5071764;28;20175;-72
2022/06/08 08:47:35;;;;;;;0.10;0.10;;;;;;;19.57;68.27;99728.69;5070705;28;20197;-74
2022/06/08 08:50:03;;;;;;;0.70;0.70;;;;;;;19.44;68.64;99724.63;5071284;28;20235;-72
2022/06/08 08:52:45;;;;;;;0.23;0.23;;;;;;;19.36;69.22;99725.78;5053272;28;20243;-72
2022/06/08 08:55:13;;;;;;;0.23;0.23;;;;;;;19.46;70.20;99724.25;5071208;28;20273;-72
2022/06/08 08:57:52;;;;;;;0.60;0.57;;;;;;;19.54;70.02;99712.84;5070500;28;20630;-72
2022/06/08 09:00:32;;;;;;;0.17;0.17;;;;;;;19.54;68.75;99707.31;5071373;28;20170;-72
2022/06/08 09:03:14;;;;;;;0.37;0.37;;;;;;;19.60;68.10;99708.50;5071003;28;20645;-72
2022/06/08 09:05:42;;;;;;;0.73;0.73;;;;;;;19.67;67.89;99704.16;5070974;28;20648;-72
2022/06/08 09:08:11;;;;;;;0.60;0.60;;;;;;;19.45;68.34;99697.72;5070087;28;20236;-73
2022/06/08 09:10:36;;;;;;;0.37;0.20;;;;;;;19.57;69.06;99706.50;5071222;28;20248;-72
2022/06/08 09:13:04;;;;;;;6.13;0.77;;;;;;;19.69;68.10;99704.59;5070038;28;20618;-73
2022/06/08 09:15:41;;;;;;;0.00;0.00;;;;;;;19.81;67.97;99702.22;5070788;28;20178;-73
2022/06/08 09:18:18;;;;;;;0.27;0.27;;;;;;;19.96;67.35;99705.03;5070160;28;20257;-72
2022/06/08 09:20:44;;;;;;;0.50;0.50;;;;;;;19.97;66.81;99712.19;5070905;28;20193;-72
2022/06/08 09:23:42;;;;;;;0.37;0.37;;;;;;;20.08;64.53;99697.13;5070693;28;20833;-72
2022/06/08 09:26:27;;;;;;;0.37;0.37;;;;;;;20.18;63.10;99698.34;5015333;28;20694;-72
2022/06/08 09:29:09;;;;;;;0.00;0.00;;;;;;;20.11;61.75;99685.28;5067448;28;20680;-72
2022/06/08 09:31:36;;;;;;;0.00;0.00;;;;;;;20.24;63.04;99693.97;5070920;28;20178;-72
2022/06/08 09:34:28;;;;;;;0.73;0.33;;;;;;;20.31;65.08;99696.78;5085874;28;20185;-72
2022/06/08 09:37:06;;;;;;;0.13;0.13;;;;;;;20.48;64.80;99681.34;5070588;28;20179;-71
2022/06/08 09:39:34;;;;;;;0.20;0.20;;;;;;;20.62;65.21;99677.78;5070511;28;20181;-72
2022/06/08 09:42:02;;;;;;;0.60;0.60;;;;;;;20.78;64.58;99680.91;5052981;28;20672;-72
2022/06/08 09:44:31;;;;;;;0.00;0.00;;;;;;;20.98;63.04;99681.31;5070496;28;20663;-72
2022/06/08 09:53:15;;;;;;;0.10;0.10;;;;;;;20.77;59.06;99671.78;5070895;28;20173;-72
2022/06/08 09:56:06;;;;;;;0.37;0.37;;;;;;;20.77;60.16;99671.00;5070279;28;20174;-72
2022/06/08 09:59:01;;;;;;;0.43;0.43;;;;;;;20.81;58.99;99669.00;5070472;28;20649;-72
2022/06/08 10:01:53;;;;;;;0.30;0.30;;;;;;;20.84;58.47;99665.47;5070599;28;20262;-72
2022/06/08 10:04:40;;;;;;;1.03;0.47;;;;;;;21.04;58.64;99657.47;5059217;28;20194;-72
2022/06/08 10:07:18;;;;;;;0.63;0.63;;;;;;;20.99;58.84;99666.22;5070437;28;20205;-72
2022/06/08 10:09:46;;;;;;;0.00;0.00;;;;;;;21.14;59.88;99658.63;5052188;28;20213;-72
2022/06/08 10:12:22;;;;;;;0.00;0.00;;;;;;;21.51;61.30;99658.09;5069799;28;20179;-73
2022/06/08 10:14:55;;;;;;;0.20;0.20;;;;;;;21.79;59.44;99654.38;5070389;28;20205;-72
2022/06/08 10:17:27;;;;;;;0.00;0.00;;;;;;;21.91;58.82;99651.91;5070157;28;20171;-73
2022/06/08 10:20:13;;;;;;;0.67;0.67;;;;;;;22.20;58.27;99649.75;5070387;28;20227;-72
2022/06/08 10:22:43;;;;;;;0.10;0.10;;;;;;;22.33;56.44;99652.03;5070352;28;20226;-72
2022/06/08 10:25:47;;;;;;;0.10;0.10;;;;;;;22.38;57.87;99638.47;5070319;28;20169;-73
2022/06/08 10:28:19;;;;;;;0.20;0.20;;;;;;;22.43;56.70;99646.38;5068804;28;20289;-72
2022/06/08 10:30:54;;;;;;;0.50;0.50;;;;;;;22.31;56.23;99634.97;5066640;28;20692;-72
2022/06/08 10:33:26;;;;;;;0.30;0.30;;;;;;;22.30;56.03;99634.19;5070231;28;20180;-72
2022/06/08 10:35:55;;;;;;;0.20;0.20;;;;;;;21.97;56.48;99641.94;5070273;28;20178;-73
2022/06/08 10:38:26;;;;;;;0.20;0.20;;;;;;;21.74;58.05;99635.34;5069701;28;20565;-73
2022/06/08 10:44:03;;;;;;;0.07;0.07;;;;;;;22.13;55.42;99640.66;5070456;28;20254;-73
2022/06/08 10:46:38;;;;;;;0.33;0.33;;;;;;;22.12;57.86;99641.84;5069783;28;20191;-72
2022/06/08 10:49:04;;;;;;;0.40;0.40;;;;;;;22.12;54.91;99636.28;5069787;28;20260;-73
2022/06/08 10:51:39;;;;;;;0.23;0.23;;;;;;;21.96;55.43;99640.34;5070073;28;20198;-73
2022/06/08 10:57:42;;;;;;;0.53;0.53;;;;;;;22.01;55.78;99635.56;5070123;28;20194;-73
2022/06/08 11:00:19;;;;;;;0.00;0.00;;;;;;;21.97;53.64;99635.56;5031777;28;20404;-73
2022/06/08 11:03:03;;;;;;;0.23;0.23;;;;;;;22.22;54.28;99629.84;5033023;28;20545;-72
2022/06/08 11:05:40;;;;;;;0.60;0.60;;;;;;;22.47;55.10;99635.22;5069056;28;20184;-72
2022/06/08 11:08:15;;;;;;;0.10;0.10;;;;;;;22.42;53.78;99628.09;5055306;28;20195;-72
2022/06/08 11:10:53;;;;;;;0.00;0.00;;;;;;;22.17;54.07;99621.97;5073522;28;20170;-72
2022/06/08 11:13:25;;;;;;;0.57;0.57;;;;;;;21.94;55.79;99625.28;5072916;28;20179;-72
2022/06/08 11:15:50;;;;;;;0.00;0.00;;;;;;;21.63;54.45;99618.72;5073422;28;20182;-74
2022/06/08 11:18:31;;;;;;;0.20;0.20;;;;;;;21.59;55.59;99623.53;5072386;28;20171;-72
2022/06/08 11:21:31;;;;;;;0.30;0.30;;;;;;;21.65;55.99;99625.44;5073333;28;20180;-73
2022/06/08 11:24:05;;;;;;;0.00;0.00;;;;;;;21.70;55.21;99618.69;5073405;28;20182;-73
2022/06/08 11:26:37;;;;;;;0.40;0.40;;;;;;;21.69;55.21;99609.53;5073128;28;20241;-72
2022/06/08 11:29:17;;;;;;;0.00;0.00;;;;;;;21.72;55.59;99607.16;5072751;28;20211;-72
2022/06/08 11:31:42;;;;;;;0.10;0.10;;;;;;;21.80;56.99;99614.25;5052191;28;20183;-74
2022/06/08 11:34:20;;;;;;;0.23;0.23;;;;;;;21.78;55.86;99600.75;5051822;28;20168;-73
2022/06/08 11:37:07;;;;;;;0.00;0.00;;;;;;;21.79;56.68;99604.31;5051575;28;20173;-73
2022/06/08 11:39:51;;;;;;;0.17;0.17;;;;;;;21.79;56.07;99607.09;5052757;28;20182;-72
2022/06/08 11:42:38;;;;;;;0.00;0.00;;;;;;;21.73;57.19;99601.19;5052953;28;20172;-72
2022/06/08 11:45:14;;;;;;;0.00;0.00;;;;;;;21.69;56.53;99592.84;5052604;28;20182;-73
2022/06/08 11:47:49;;;;;;;0.00;0.00;;;;;;;21.65;56.89;99597.66;5052041;28;20191;-74
2022/06/08 11:50:19;;;;;;;0.00;0.00;;;;;;;21.66;56.78;99595.66;5052820;28;20177;-73
2022/06/08 11:52:47;;;;;;;0.00;0.00;;;;;;;21.87;56.41;99594.75;5052886;28;20169;-72
2022/06/08 11:55:23;;;;;;;0.00;0.00;;;;;;;22.08;57.45;99596.59;5052573;28;20572;-74
2022/06/08 11:58:04;;;;;;;0.00;0.00;;;;;;;22.02;54.55;99589.84;5052000;28;20558;-73
2022/06/08 12:00:34;;;;;;;0.30;0.30;;;;;;;21.88;54.96;99587.97;5052588;28;20167;-73
2022/06/08 12:03:05;;;;;;;0.40;0.40;;;;;;;21.69;56.58;99581.72;5052332;28;20263;-73
2022/06/08 12:05:33;;;;;;;0.80;0.80;;;;;;;21.52;54.36;99567.94;5052432;28;20203;-72
2022/06/08 12:08:08;;;;;;;0.00;0.00;;;;;;;21.46;56.75;99569.59;5051648;28;20199;-72